Terminal Aerodrome Forecast
Issued by NWS

Home | Current Version | Previous Version | Text Only | Print | Product List | Glossary On
Versions: 1 2 3 4 5 6 7 8 9 10 11 12 13 14 15 16 17 18 19 20 21 22 23 24 25 26 27 28 29
848
FTUS43 KABR 121732
TAFATY
TAF
KATY 121732Z 1218/1318 36018KT P6SM FEW250
     FM130000 35008KT P6SM FEW250
     FM131500 15008KT P6SM BKN100
     FM131700 15015KT P6SM BKN050=

USA.gov is the U.S. government's official web portal to all federal, state and local government web resources and services.